Jrs Mira — V2FS4 — position and weather

sailwx.info

Track history (hours):
 
Tides and Currents Weather Stations Pressure Air Temp Water Temp Dewpoint Dewpoint Depression Visibility Wind Speed Wind Dir Waves Ship Positions

Jrs Mira

Last reported at 2016-May-04 13:29 UTC. Time now 2016-May-04 17:28 UTC.
Position N 59°35' E 020°49'.

Length 107 m; draft 7.7 m.

Type: Cargo ship. MMSI: 305780000.

Date/timePositionNaut miles runAvg speedWind from/ knotsBaromVisibWave heightAir tempDewpointWater temp
2016-May-04 13:29N 59°35' E 020°49'1111.9
2016-May-04 12:33N 59°34' E 021°10'1212.0
2016-May-04 11:33N 59°32' E 021°34'1211.9
2016-May-04 10:33N 59°31' E 021°58'1212.2
2016-May-04 09:33N 59°32' E 022°21'1612.0
2016-May-04 08:14N 59°34' E 022°52'811.9
2016-May-04 07:33N 59°36' E 023°07'1211.9
2016-May-04 06:33N 59°40' E 023°30'1212.2
2016-May-04 05:33N 59°43' E 023°53'6112.1
2016-May-04 00:33N 59°56' E 025°51'1212.1
2016-May-03 23:33N 60°05' E 026°09'1211.7
2016-May-03 22:34N 60°13' E 026°24'10 9.9
2016-May-03 21:33N 60°23' E 026°17'3 2.4
2016-May-03 20:32N 60°25' E 026°15'0 0.0
2016-May-03 19:32N 60°25' E 026°15'0 0.0
2016-May-03 18:32N 60°25' E 026°15'0 0.0
2016-May-03 17:32N 60°25' E 026°15'0 0.0
2016-May-03 16:32N 60°25' E 026°15'0 0.0
2016-May-03 15:32N 60°25' E 026°15'0 0.0
2016-May-03 14:32N 60°25' E 026°15'0 0.0
2016-May-03 13:32N 60°25' E 026°15'0 0.0
2016-May-03 12:29N 60°25' E 026°15'0 0.0
2016-May-03 11:32N 60°25' E 026°15'0 0.0
2016-May-03 10:32N 60°25' E 026°15'0 0.0
2016-May-03 09:32N 60°25' E 026°15'0 0.0
2016-May-03 08:32N 60°25' E 026°15'0 0.0
2016-May-03 07:32N 60°25' E 026°15'0 0.0
2016-May-03 06:32N 60°25' E 026°15'0 0.0
2016-May-03 05:32N 60°25' E 026°15'0 0.0
2016-May-03 04:32N 60°25' E 026°15'0 0.0
2016-May-03 03:32N 60°25' E 026°15'0 0.0
2016-May-03 02:32N 60°25' E 026°15'0 0.0
2016-May-03 01:32N 60°25' E 026°15'0 0.0
2016-May-03 00:32N 60°25' E 026°15'0 0.0
2016-May-02 23:32N 60°25' E 026°15'0 0.0
2016-May-02 22:32N 60°25' E 026°15'0 0.0
2016-May-02 21:32N 60°25' E 026°15'0 0.0
2016-May-02 20:32N 60°25' E 026°15'0 0.0
2016-May-02 19:32N 60°25' E 026°15'0 0.0
2016-May-02 18:32N 60°25' E 026°15'0 0.0
2016-May-02 17:32N 60°25' E 026°15'2 2.5
2016-May-02 16:33N 60°23' E 026°17'1110.9
2016-May-02 15:33N 60°12' E 026°24'8311.5
2016-May-02 08:22N 59°39' E 023°53'1112.5
2016-May-02 07:30N 59°36' E 023°32'32612.0
2016-May-01 04:25N 55°52' E 016°09'1011.5
2016-May-01 03:33N 55°48' E 015°53'1211.5
2016-May-01 02:33N 55°41' E 015°36'1111.4
2016-May-01 01:33N 55°36' E 015°18'1111.1
2016-May-01 00:33N 55°31' E 015°00'1111.3
2016-Apr-30 23:33N 55°26' E 014°43'1111.0
2016-Apr-30 22:33N 55°18' E 014°29'1111.0
2016-Apr-30 21:33N 55°10' E 014°15'1110.7
2016-Apr-30 20:33N 55°11' E 013°57'1110.6
2016-Apr-30 19:33N 55°13' E 013°38'1110.9
2016-Apr-30 18:33N 55°14' E 013°19'1111.4
2016-Apr-30 17:33N 55°15' E 012°60'1111.5
2016-Apr-30 16:33N 55°18' E 012°40'1110.8
2016-Apr-30 15:33N 55°29' E 012°41'9 9.2
2016-Apr-30 14:33N 55°38' E 012°42'9 8.9
2016-Apr-30 13:33N 55°47' E 012°42'1010.2
2016-Apr-30 12:34N 55°57' E 012°38'9 8.5
2016-Apr-30 11:33N 56°05' E 012°35'10 9.7
2016-Apr-30 10:33N 56°11' E 012°21'2410.8
2016-Apr-30 08:21N 56°31' E 011°58'810.6
2016-Apr-30 07:33N 56°39' E 011°54'1110.8
2016-Apr-30 06:33N 56°50' E 011°49'1110.7
2016-Apr-30 05:33N 56°60' E 011°43'1110.6
2016-Apr-30 04:33N 57°09' E 011°34'1110.9
2016-Apr-30 03:33N 57°18' E 011°23'10 9.7
2016-Apr-30 02:33N 57°23' E 011°07'0 0.4
2016-Apr-30 01:32N 57°22' E 011°06'0 0.0
2016-Apr-30 00:31N 57°22' E 011°07'0 0.0
2016-Apr-29 23:31N 57°22' E 011°07'0 0.0
2016-Apr-29 22:31N 57°22' E 011°07'0 0.0
2016-Apr-29 21:31N 57°22' E 011°07'0 0.0
2016-Apr-29 20:31N 57°22' E 011°07'0 0.0
2016-Apr-29 19:31N 57°22' E 011°06'1 0.6
2016-Apr-29 18:33N 57°23' E 011°06'8 7.9
2016-Apr-29 17:33N 57°31' E 011°04'9 8.9
2016-Apr-29 16:33N 57°39' E 010°60'9 8.9
2016-Apr-29 15:33N 57°46' E 010°48'9 9.3
2016-Apr-29 14:33N 57°48' E 010°32'12110.9
2016-Apr-29 03:31N 57°44' E 006°46'1010.6
2016-Apr-29 02:33N 57°47' E 006°28'1111.3
2016-Apr-29 01:33N 57°55' E 006°11'1211.6
2016-Apr-29 00:33N 58°02' E 005°55'1211.5
2016-Apr-28 23:33N 58°10' E 005°38'2311.5
2016-Apr-28 21:32N 58°26' E 005°06'1211.8
2016-Apr-28 20:33N 58°34' E 004°50'  
2016-Apr-24 17:33N 59°21' W 004°05'  
Track history (hours):
 
Tides and Currents Weather Stations Pressure Air Temp Water Temp Dewpoint Dewpoint Depression Visibility Wind Speed Wind Dir Waves Ship Positions

Jrs Mira

Last reported at 2016-May-04 13:29 UTC. Time now 2016-May-04 17:28 UTC.
Position N 59°35' E 020°49'.

Length 107 m; draft 7.7 m.

Type: Cargo ship. MMSI: 305780000.

Date/timePositionNaut miles runAvg speedWind from/ knotsBaromVisibWave heightAir tempDewpointWater temp
2016-May-04 13:29N 59°35' E 020°49'1111.9
2016-May-04 12:33N 59°34' E 021°10'1212.0
2016-May-04 11:33N 59°32' E 021°34'1211.9
2016-May-04 10:33N 59°31' E 021°58'1212.2
2016-May-04 09:33N 59°32' E 022°21'1612.0
2016-May-04 08:14N 59°34' E 022°52'811.9
2016-May-04 07:33N 59°36' E 023°07'1211.9
2016-May-04 06:33N 59°40' E 023°30'1212.2
2016-May-04 05:33N 59°43' E 023°53'6112.1
2016-May-04 00:33N 59°56' E 025°51'1212.1
2016-May-03 23:33N 60°05' E 026°09'1211.7
2016-May-03 22:34N 60°13' E 026°24'10 9.9
2016-May-03 21:33N 60°23' E 026°17'3 2.4
2016-May-03 20:32N 60°25' E 026°15'0 0.0
2016-May-03 19:32N 60°25' E 026°15'0 0.0
2016-May-03 18:32N 60°25' E 026°15'0 0.0
2016-May-03 17:32N 60°25' E 026°15'0 0.0
2016-May-03 16:32N 60°25' E 026°15'0 0.0
2016-May-03 15:32N 60°25' E 026°15'0 0.0
2016-May-03 14:32N 60°25' E 026°15'0 0.0
2016-May-03 13:32N 60°25' E 026°15'0 0.0
2016-May-03 12:29N 60°25' E 026°15'0 0.0
2016-May-03 11:32N 60°25' E 026°15'0 0.0
2016-May-03 10:32N 60°25' E 026°15'0 0.0
2016-May-03 09:32N 60°25' E 026°15'0 0.0
2016-May-03 08:32N 60°25' E 026°15'0 0.0
2016-May-03 07:32N 60°25' E 026°15'0 0.0
2016-May-03 06:32N 60°25' E 026°15'0 0.0
2016-May-03 05:32N 60°25' E 026°15'0 0.0
2016-May-03 04:32N 60°25' E 026°15'0 0.0
2016-May-03 03:32N 60°25' E 026°15'0 0.0
2016-May-03 02:32N 60°25' E 026°15'0 0.0
2016-May-03 01:32N 60°25' E 026°15'0 0.0
2016-May-03 00:32N 60°25' E 026°15'0 0.0
2016-May-02 23:32N 60°25' E 026°15'0 0.0
2016-May-02 22:32N 60°25' E 026°15'0 0.0
2016-May-02 21:32N 60°25' E 026°15'0 0.0
2016-May-02 20:32N 60°25' E 026°15'0 0.0
2016-May-02 19:32N 60°25' E 026°15'0 0.0
2016-May-02 18:32N 60°25' E 026°15'0 0.0
2016-May-02 17:32N 60°25' E 026°15'2 2.5
2016-May-02 16:33N 60°23' E 026°17'1110.9
2016-May-02 15:33N 60°12' E 026°24'8311.5
2016-May-02 08:22N 59°39' E 023°53'1112.5
2016-May-02 07:30N 59°36' E 023°32'32612.0
2016-May-01 04:25N 55°52' E 016°09'1011.5
2016-May-01 03:33N 55°48' E 015°53'1211.5
2016-May-01 02:33N 55°41' E 015°36'1111.4
2016-May-01 01:33N 55°36' E 015°18'1111.1
2016-May-01 00:33N 55°31' E 015°00'1111.3
2016-Apr-30 23:33N 55°26' E 014°43'1111.0
2016-Apr-30 22:33N 55°18' E 014°29'1111.0
2016-Apr-30 21:33N 55°10' E 014°15'1110.7
2016-Apr-30 20:33N 55°11' E 013°57'1110.6
2016-Apr-30 19:33N 55°13' E 013°38'1110.9
2016-Apr-30 18:33N 55°14' E 013°19'1111.4
2016-Apr-30 17:33N 55°15' E 012°60'1111.5
2016-Apr-30 16:33N 55°18' E 012°40'1110.8
2016-Apr-30 15:33N 55°29' E 012°41'9 9.2
2016-Apr-30 14:33N 55°38' E 012°42'9 8.9
2016-Apr-30 13:33N 55°47' E 012°42'1010.2
2016-Apr-30 12:34N 55°57' E 012°38'9 8.5
2016-Apr-30 11:33N 56°05' E 012°35'10 9.7
2016-Apr-30 10:33N 56°11' E 012°21'2410.8
2016-Apr-30 08:21N 56°31' E 011°58'810.6
2016-Apr-30 07:33N 56°39' E 011°54'1110.8
2016-Apr-30 06:33N 56°50' E 011°49'1110.7
2016-Apr-30 05:33N 56°60' E 011°43'1110.6
2016-Apr-30 04:33N 57°09' E 011°34'1110.9
2016-Apr-30 03:33N 57°18' E 011°23'10 9.7
2016-Apr-30 02:33N 57°23' E 011°07'0 0.4
2016-Apr-30 01:32N 57°22' E 011°06'0 0.0
2016-Apr-30 00:31N 57°22' E 011°07'0 0.0
2016-Apr-29 23:31N 57°22' E 011°07'0 0.0
2016-Apr-29 22:31N 57°22' E 011°07'0 0.0
2016-Apr-29 21:31N 57°22' E 011°07'0 0.0
2016-Apr-29 20:31N 57°22' E 011°07'0 0.0
2016-Apr-29 19:31N 57°22' E 011°06'1 0.6
2016-Apr-29 18:33N 57°23' E 011°06'8 7.9
2016-Apr-29 17:33N 57°31' E 011°04'9 8.9
2016-Apr-29 16:33N 57°39' E 010°60'9 8.9
2016-Apr-29 15:33N 57°46' E 010°48'9 9.3
2016-Apr-29 14:33N 57°48' E 010°32'12110.9
2016-Apr-29 03:31N 57°44' E 006°46'1010.6
2016-Apr-29 02:33N 57°47' E 006°28'1111.3
2016-Apr-29 01:33N 57°55' E 006°11'1211.6
2016-Apr-29 00:33N 58°02' E 005°55'1211.5
2016-Apr-28 23:33N 58°10' E 005°38'2311.5
2016-Apr-28 21:32N 58°26' E 005°06'1211.8
2016-Apr-28 20:33N 58°34' E 004°50'  
2016-Apr-24 17:33N 59°21' W 004°05'  

Dump ship's entire track history